Emery, South Dakota
Current Conditions -  °F | °C
As of 12:53 PM on Monday 22 Dec 2014 (Local Time) from KMHE Reporting Station
Overcast Overcast  
Wind Chill: 30°   Ceiling: 600
Heat Index: 37°   Visibility: 7mi
Dew Point: 36°   Wind: 9mph
Humidity: 96%   Direction: 310°NW
Pressure: 29.42"   Gusts: NA
Location:  43.6°N, 97.62°W
Report Text: KMHE 221853Z AUTO 31008KT 7SM BKN006 OVC011 03/02 A2942 RMK AO2 RAB1756E13 CIG 004V008 SLP970 P0000 T00280022
Loading
Personal Weather Stations






























Interactive Weather Map New forecast layout! Learn more

10-Day Weather Forecast

Advertisements
Track Severe Weather on mobile